sensor_id;sensor_type;location;lat;lon;timestamp;P1;durP1;ratioP1;P2;durP2;ratioP2
17175;SDS011;8703;48.996;9.594;2023-02-28T00:00:12;3.80;;;2.10;;
17175;SDS011;8703;48.996;9.594;2023-02-28T00:02:40;3.83;;;2.00;;
17175;SDS011;8703;48.996;9.594;2023-02-28T00:05:09;3.07;;;2.10;;
17175;SDS011;8703;48.996;9.594;2023-02-28T00:07:38;4.37;;;2.30;;
17175;SDS011;8703;48.996;9.594;2023-02-28T00:10:06;5.17;;;2.30;;
17175;SDS011;8703;48.996;9.594;2023-02-28T00:12:34;3.23;;;2.07;;
17175;SDS011;8703;48.996;9.594;2023-02-28T00:15:04;2.77;;;1.90;;
17175;SDS011;8703;48.996;9.594;2023-02-28T00:17:32;3.67;;;2.40;;
17175;SDS011;8703;48.996;9.594;2023-02-28T00:20:00;4.20;;;2.10;;
17175;SDS011;8703;48.996;9.594;2023-02-28T00:22:37;3.83;;;2.50;;
17175;SDS011;8703;48.996;9.594;2023-02-28T00:25:05;3.83;;;2.57;;
17175;SDS011;8703;48.996;9.594;2023-02-28T00:27:33;4.03;;;2.30;;
17175;SDS011;8703;48.996;9.594;2023-02-28T00:30:02;4.20;;;2.20;;
17175;SDS011;8703;48.996;9.594;2023-02-28T00:32:32;3.43;;;2.27;;
17175;SDS011;8703;48.996;9.594;2023-02-28T00:35:00;4.00;;;2.23;;
17175;SDS011;8703;48.996;9.594;2023-02-28T00:37:28;4.57;;;2.67;;
17175;SDS011;8703;48.996;9.594;2023-02-28T00:39:55;3.27;;;2.30;;
17175;SDS011;8703;48.996;9.594;2023-02-28T00:42:23;3.73;;;2.27;;
17175;SDS011;8703;48.996;9.594;2023-02-28T00:44:51;4.03;;;2.60;;
17175;SDS011;8703;48.996;9.594;2023-02-28T00:47:20;3.40;;;2.30;;
17175;SDS011;8703;48.996;9.594;2023-02-28T00:49:48;3.63;;;2.30;;
17175;SDS011;8703;48.996;9.594;2023-02-28T00:52:15;4.17;;;2.50;;
17175;SDS011;8703;48.996;9.594;2023-02-28T00:54:42;3.63;;;2.37;;
17175;SDS011;8703;48.996;9.594;2023-02-28T00:57:10;5.53;;;2.73;;
17175;SDS011;8703;48.996;9.594;2023-02-28T00:59:37;7.53;;;4.17;;
17175;SDS011;8703;48.996;9.594;2023-02-28T01:02:05;10.50;;;4.60;;
17175;SDS011;8703;48.996;9.594;2023-02-28T01:04:33;6.67;;;3.77;;
17175;SDS011;8703;48.996;9.594;2023-02-28T01:07:01;11.93;;;5.50;;
17175;SDS011;8703;48.996;9.594;2023-02-28T01:09:28;12.20;;;5.40;;
17175;SDS011;8703;48.996;9.594;2023-02-28T01:11:56;16.10;;;5.60;;
17175;SDS011;8703;48.996;9.594;2023-02-28T01:14:24;9.47;;;4.23;;
17175;SDS011;8703;48.996;9.594;2023-02-28T01:16:51;5.50;;;3.00;;
17175;SDS011;8703;48.996;9.594;2023-02-28T01:19:19;6.73;;;3.37;;
17175;SDS011;8703;48.996;9.594;2023-02-28T01:21:47;12.77;;;5.10;;
17175;SDS011;8703;48.996;9.594;2023-02-28T01:24:15;26.63;;;8.30;;
17175;SDS011;8703;48.996;9.594;2023-02-28T01:26:42;5.90;;;3.20;;
17175;SDS011;8703;48.996;9.594;2023-02-28T01:29:10;12.23;;;3.93;;
17175;SDS011;8703;48.996;9.594;2023-02-28T01:31:37;7.30;;;3.20;;
17175;SDS011;8703;48.996;9.594;2023-02-28T01:34:05;16.00;;;5.57;;
17175;SDS011;8703;48.996;9.594;2023-02-28T01:36:32;10.93;;;4.53;;
17175;SDS011;8703;48.996;9.594;2023-02-28T01:39:02;8.90;;;3.77;;
17175;SDS011;8703;48.996;9.594;2023-02-28T01:41:31;9.67;;;3.73;;
17175;SDS011;8703;48.996;9.594;2023-02-28T01:44:03;7.30;;;3.37;;
17175;SDS011;8703;48.996;9.594;2023-02-28T01:46:31;4.57;;;2.90;;
17175;SDS011;8703;48.996;9.594;2023-02-28T01:49:04;7.80;;;3.67;;
17175;SDS011;8703;48.996;9.594;2023-02-28T01:51:34;4.33;;;2.80;;
17175;SDS011;8703;48.996;9.594;2023-02-28T01:54:07;3.63;;;2.60;;
17175;SDS011;8703;48.996;9.594;2023-02-28T01:56:39;10.00;;;4.30;;
17175;SDS011;8703;48.996;9.594;2023-02-28T01:59:10;7.43;;;3.30;;
17175;SDS011;8703;48.996;9.594;2023-02-28T02:01:39;6.60;;;3.43;;
17175;SDS011;8703;48.996;9.594;2023-02-28T02:04:07;6.93;;;3.77;;
17175;SDS011;8703;48.996;9.594;2023-02-28T02:06:36;5.50;;;3.33;;
17175;SDS011;8703;48.996;9.594;2023-02-28T02:09:06;6.77;;;3.77;;
17175;SDS011;8703;48.996;9.594;2023-02-28T02:11:34;8.60;;;4.17;;
17175;SDS011;8703;48.996;9.594;2023-02-28T02:14:09;5.10;;;3.30;;
17175;SDS011;8703;48.996;9.594;2023-02-28T02:16:51;4.80;;;3.53;;
17175;SDS011;8703;48.996;9.594;2023-02-28T02:22:37;3.63;;;2.67;;
17175;SDS011;8703;48.996;9.594;2023-02-28T02:25:27;5.20;;;2.87;;
17175;SDS011;8703;48.996;9.594;2023-02-28T02:30:58;4.50;;;2.93;;
17175;SDS011;8703;48.996;9.594;2023-02-28T02:34:25;3.20;;;2.70;;
17175;SDS011;8703;48.996;9.594;2023-02-28T02:36:58;4.70;;;2.97;;
17175;SDS011;8703;48.996;9.594;2023-02-28T02:39:31;4.47;;;2.90;;
17175;SDS011;8703;48.996;9.594;2023-02-28T02:42:03;4.63;;;3.00;;
17175;SDS011;8703;48.996;9.594;2023-02-28T02:44:38;6.97;;;3.67;;
17175;SDS011;8703;48.996;9.594;2023-02-28T02:47:10;6.37;;;3.70;;
17175;SDS011;8703;48.996;9.594;2023-02-28T02:49:42;7.47;;;3.63;;
17175;SDS011;8703;48.996;9.594;2023-02-28T02:52:12;6.70;;;3.53;;
17175;SDS011;8703;48.996;9.594;2023-02-28T02:54:43;4.73;;;3.20;;
17175;SDS011;8703;48.996;9.594;2023-02-28T02:57:12;4.33;;;3.00;;
17175;SDS011;8703;48.996;9.594;2023-02-28T02:59:42;7.40;;;3.50;;
17175;SDS011;8703;48.996;9.594;2023-02-28T03:02:10;6.30;;;3.77;;
17175;SDS011;8703;48.996;9.594;2023-02-28T03:04:42;5.27;;;3.30;;
17175;SDS011;8703;48.996;9.594;2023-02-28T03:07:11;7.67;;;3.50;;
17175;SDS011;8703;48.996;9.594;2023-02-28T03:09:39;5.53;;;3.27;;
17175;SDS011;8703;48.996;9.594;2023-02-28T03:14:44;6.37;;;3.50;;
17175;SDS011;8703;48.996;9.594;2023-02-28T03:17:30;6.63;;;3.90;;
17175;SDS011;8703;48.996;9.594;2023-02-28T03:20:09;7.93;;;3.47;;
17175;SDS011;8703;48.996;9.594;2023-02-28T03:22:54;5.07;;;3.00;;
17175;SDS011;8703;48.996;9.594;2023-02-28T03:25:29;5.63;;;3.00;;
17175;SDS011;8703;48.996;9.594;2023-02-28T03:28:00;4.53;;;2.80;;
17175;SDS011;8703;48.996;9.594;2023-02-28T03:30:33;4.60;;;2.93;;
17175;SDS011;8703;48.996;9.594;2023-02-28T03:33:06;6.73;;;3.07;;
17175;SDS011;8703;48.996;9.594;2023-02-28T03:35:39;4.30;;;3.00;;
17175;SDS011;8703;48.996;9.594;2023-02-28T03:38:11;4.70;;;3.27;;
17175;SDS011;8703;48.996;9.594;2023-02-28T03:40:42;6.70;;;3.60;;
17175;SDS011;8703;48.996;9.594;2023-02-28T03:43:13;6.83;;;3.97;;
17175;SDS011;8703;48.996;9.594;2023-02-28T03:45:44;7.60;;;4.10;;
17175;SDS011;8703;48.996;9.594;2023-02-28T03:48:15;6.90;;;3.90;;
17175;SDS011;8703;48.996;9.594;2023-02-28T03:50:47;5.17;;;3.40;;
17175;SDS011;8703;48.996;9.594;2023-02-28T03:53:19;5.37;;;3.57;;
17175;SDS011;8703;48.996;9.594;2023-02-28T03:55:50;5.23;;;3.17;;
17175;SDS011;8703;48.996;9.594;2023-02-28T03:58:22;5.03;;;3.33;;
17175;SDS011;8703;48.996;9.594;2023-02-28T04:00:55;4.17;;;3.00;;
17175;SDS011;8703;48.996;9.594;2023-02-28T04:03:25;5.17;;;3.37;;
17175;SDS011;8703;48.996;9.594;2023-02-28T04:05:54;5.47;;;3.17;;
17175;SDS011;8703;48.996;9.594;2023-02-28T04:08:22;7.43;;;3.30;;
17175;SDS011;8703;48.996;9.594;2023-02-28T04:10:51;5.50;;;3.17;;
17175;SDS011;8703;48.996;9.594;2023-02-28T04:13:21;7.17;;;3.37;;
17175;SDS011;8703;48.996;9.594;2023-02-28T04:15:48;5.77;;;3.43;;
17175;SDS011;8703;48.996;9.594;2023-02-28T04:18:16;5.97;;;3.70;;
17175;SDS011;8703;48.996;9.594;2023-02-28T04:20:43;8.73;;;4.40;;
17175;SDS011;8703;48.996;9.594;2023-02-28T04:23:12;6.07;;;3.63;;
17175;SDS011;8703;48.996;9.594;2023-02-28T04:25:39;16.07;;;6.20;;
17175;SDS011;8703;48.996;9.594;2023-02-28T04:28:07;9.63;;;4.47;;
17175;SDS011;8703;48.996;9.594;2023-02-28T04:30:35;5.63;;;3.60;;
17175;SDS011;8703;48.996;9.594;2023-02-28T04:33:03;6.97;;;4.10;;
17175;SDS011;8703;48.996;9.594;2023-02-28T04:35:31;8.27;;;4.43;;
17175;SDS011;8703;48.996;9.594;2023-02-28T04:37:58;7.00;;;3.77;;
17175;SDS011;8703;48.996;9.594;2023-02-28T04:40:27;8.30;;;4.00;;
17175;SDS011;8703;48.996;9.594;2023-02-28T04:42:55;6.30;;;3.60;;
17175;SDS011;8703;48.996;9.594;2023-02-28T04:45:22;5.47;;;3.43;;
17175;SDS011;8703;48.996;9.594;2023-02-28T04:47:50;6.80;;;3.90;;
17175;SDS011;8703;48.996;9.594;2023-02-28T04:50:18;5.20;;;3.40;;
17175;SDS011;8703;48.996;9.594;2023-02-28T04:52:45;5.40;;;3.57;;
17175;SDS011;8703;48.996;9.594;2023-02-28T04:55:13;6.60;;;3.60;;
17175;SDS011;8703;48.996;9.594;2023-02-28T04:57:42;6.60;;;4.07;;
17175;SDS011;8703;48.996;9.594;2023-02-28T05:00:10;9.10;;;4.37;;
17175;SDS011;8703;48.996;9.594;2023-02-28T05:02:41;8.10;;;3.90;;
17175;SDS011;8703;48.996;9.594;2023-02-28T05:05:09;6.20;;;3.70;;
17175;SDS011;8703;48.996;9.594;2023-02-28T05:07:37;8.07;;;4.17;;
17175;SDS011;8703;48.996;9.594;2023-02-28T05:10:04;7.20;;;4.00;;
17175;SDS011;8703;48.996;9.594;2023-02-28T05:12:32;9.03;;;4.53;;
17175;SDS011;8703;48.996;9.594;2023-02-28T05:15:01;5.50;;;3.63;;
17175;SDS011;8703;48.996;9.594;2023-02-28T05:17:30;7.63;;;4.40;;
17175;SDS011;8703;48.996;9.594;2023-02-28T05:19:57;6.27;;;3.70;;
17175;SDS011;8703;48.996;9.594;2023-02-28T05:22:25;5.67;;;3.90;;
17175;SDS011;8703;48.996;9.594;2023-02-28T05:24:52;6.47;;;3.80;;
17175;SDS011;8703;48.996;9.594;2023-02-28T05:27:19;6.77;;;4.13;;
17175;SDS011;8703;48.996;9.594;2023-02-28T05:29:47;4.33;;;3.57;;
17175;SDS011;8703;48.996;9.594;2023-02-28T05:32:16;6.13;;;3.80;;
17175;SDS011;8703;48.996;9.594;2023-02-28T05:34:44;7.43;;;4.20;;
17175;SDS011;8703;48.996;9.594;2023-02-28T05:37:11;7.70;;;4.00;;
17175;SDS011;8703;48.996;9.594;2023-02-28T05:39:40;6.67;;;3.73;;
17175;SDS011;8703;48.996;9.594;2023-02-28T05:42:07;7.80;;;4.23;;
17175;SDS011;8703;48.996;9.594;2023-02-28T05:44:35;6.50;;;4.00;;
17175;SDS011;8703;48.996;9.594;2023-02-28T05:47:03;6.83;;;4.00;;
17175;SDS011;8703;48.996;9.594;2023-02-28T05:49:31;7.07;;;3.57;;
17175;SDS011;8703;48.996;9.594;2023-02-28T05:51:59;6.27;;;3.87;;
17175;SDS011;8703;48.996;9.594;2023-02-28T05:54:27;6.03;;;3.80;;
17175;SDS011;8703;48.996;9.594;2023-02-28T05:56:55;5.93;;;3.67;;
17175;SDS011;8703;48.996;9.594;2023-02-28T05:59:23;9.60;;;4.10;;
17175;SDS011;8703;48.996;9.594;2023-02-28T06:01:50;6.53;;;4.10;;
17175;SDS011;8703;48.996;9.594;2023-02-28T06:04:18;6.67;;;4.20;;
17175;SDS011;8703;48.996;9.594;2023-02-28T06:06:48;5.97;;;3.83;;
17175;SDS011;8703;48.996;9.594;2023-02-28T06:09:16;7.40;;;3.80;;
17175;SDS011;8703;48.996;9.594;2023-02-28T06:11:44;7.37;;;4.20;;
17175;SDS011;8703;48.996;9.594;2023-02-28T06:14:12;7.10;;;4.17;;
17175;SDS011;8703;48.996;9.594;2023-02-28T06:16:41;6.07;;;3.87;;
17175;SDS011;8703;48.996;9.594;2023-02-28T06:19:09;5.87;;;3.70;;
17175;SDS011;8703;48.996;9.594;2023-02-28T06:21:37;6.13;;;4.10;;
17175;SDS011;8703;48.996;9.594;2023-02-28T06:24:06;6.63;;;4.17;;
17175;SDS011;8703;48.996;9.594;2023-02-28T06:26:34;6.43;;;4.07;;
17175;SDS011;8703;48.996;9.594;2023-02-28T06:29:01;7.77;;;4.33;;
17175;SDS011;8703;48.996;9.594;2023-02-28T06:31:29;7.40;;;4.00;;
17175;SDS011;8703;48.996;9.594;2023-02-28T06:33:56;8.57;;;4.60;;
17175;SDS011;8703;48.996;9.594;2023-02-28T06:36:24;8.77;;;4.33;;
17175;SDS011;8703;48.996;9.594;2023-02-28T06:38:51;7.30;;;4.23;;
17175;SDS011;8703;48.996;9.594;2023-02-28T06:41:22;7.93;;;4.63;;
17175;SDS011;8703;48.996;9.594;2023-02-28T06:43:50;9.00;;;3.90;;
17175;SDS011;8703;48.996;9.594;2023-02-28T06:46:17;8.10;;;4.40;;
17175;SDS011;8703;48.996;9.594;2023-02-28T06:48:45;13.03;;;7.43;;
17175;SDS011;8703;48.996;9.594;2023-02-28T06:51:13;6.70;;;4.17;;
17175;SDS011;8703;48.996;9.594;2023-02-28T06:53:41;15.07;;;7.17;;
17175;SDS011;8703;48.996;9.594;2023-02-28T06:56:09;17.37;;;7.77;;
17175;SDS011;8703;48.996;9.594;2023-02-28T06:58:39;11.40;;;7.30;;
17175;SDS011;8703;48.996;9.594;2023-02-28T07:01:07;8.87;;;4.57;;
17175;SDS011;8703;48.996;9.594;2023-02-28T07:03:35;8.97;;;5.30;;
17175;SDS011;8703;48.996;9.594;2023-02-28T07:06:04;8.07;;;4.67;;
17175;SDS011;8703;48.996;9.594;2023-02-28T07:08:31;9.17;;;5.00;;
17175;SDS011;8703;48.996;9.594;2023-02-28T07:10:59;7.40;;;4.70;;
17175;SDS011;8703;48.996;9.594;2023-02-28T07:13:26;8.70;;;5.03;;
17175;SDS011;8703;48.996;9.594;2023-02-28T07:15:56;8.80;;;4.70;;
17175;SDS011;8703;48.996;9.594;2023-02-28T07:18:24;9.03;;;5.00;;
17175;SDS011;8703;48.996;9.594;2023-02-28T07:20:51;8.50;;;4.93;;
17175;SDS011;8703;48.996;9.594;2023-02-28T07:23:19;7.97;;;4.77;;
17175;SDS011;8703;48.996;9.594;2023-02-28T07:25:46;8.13;;;4.70;;
17175;SDS011;8703;48.996;9.594;2023-02-28T07:28:15;9.43;;;5.23;;
17175;SDS011;8703;48.996;9.594;2023-02-28T07:30:42;10.63;;;5.43;;
17175;SDS011;8703;48.996;9.594;2023-02-28T07:33:11;8.60;;;5.20;;
17175;SDS011;8703;48.996;9.594;2023-02-28T07:35:38;11.23;;;5.40;;
17175;SDS011;8703;48.996;9.594;2023-02-28T07:38:06;7.93;;;4.87;;
17175;SDS011;8703;48.996;9.594;2023-02-28T07:40:33;8.67;;;5.17;;
17175;SDS011;8703;48.996;9.594;2023-02-28T07:43:01;10.17;;;5.30;;
17175;SDS011;8703;48.996;9.594;2023-02-28T07:45:29;10.23;;;5.33;;
17175;SDS011;8703;48.996;9.594;2023-02-28T07:47:59;8.33;;;5.33;;
17175;SDS011;8703;48.996;9.594;2023-02-28T07:50:28;9.80;;;5.57;;
17175;SDS011;8703;48.996;9.594;2023-02-28T07:52:56;8.47;;;5.50;;
17175;SDS011;8703;48.996;9.594;2023-02-28T07:55:23;9.53;;;5.03;;
17175;SDS011;8703;48.996;9.594;2023-02-28T07:57:51;9.67;;;5.30;;
17175;SDS011;8703;48.996;9.594;2023-02-28T08:00:19;9.53;;;5.37;;
17175;SDS011;8703;48.996;9.594;2023-02-28T08:02:46;8.07;;;5.07;;
17175;SDS011;8703;48.996;9.594;2023-02-28T08:05:14;8.93;;;5.10;;
17175;SDS011;8703;48.996;9.594;2023-02-28T08:07:43;10.73;;;5.80;;
17175;SDS011;8703;48.996;9.594;2023-02-28T08:10:12;8.17;;;5.03;;
17175;SDS011;8703;48.996;9.594;2023-02-28T08:12:39;9.10;;;5.23;;
17175;SDS011;8703;48.996;9.594;2023-02-28T08:15:07;6.97;;;4.77;;
17175;SDS011;8703;48.996;9.594;2023-02-28T08:17:35;9.37;;;5.10;;
17175;SDS011;8703;48.996;9.594;2023-02-28T08:20:03;10.57;;;5.93;;
17175;SDS011;8703;48.996;9.594;2023-02-28T08:22:30;10.73;;;5.30;;
17175;SDS011;8703;48.996;9.594;2023-02-28T08:24:59;11.07;;;5.73;;
17175;SDS011;8703;48.996;9.594;2023-02-28T08:27:27;10.23;;;5.60;;
17175;SDS011;8703;48.996;9.594;2023-02-28T08:29:54;12.30;;;5.90;;
17175;SDS011;8703;48.996;9.594;2023-02-28T08:32:22;9.17;;;5.77;;
17175;SDS011;8703;48.996;9.594;2023-02-28T08:34:49;9.37;;;5.70;;
17175;SDS011;8703;48.996;9.594;2023-02-28T08:37:17;11.03;;;6.10;;
17175;SDS011;8703;48.996;9.594;2023-02-28T08:39:44;10.57;;;6.00;;
17175;SDS011;8703;48.996;9.594;2023-02-28T08:42:13;8.93;;;5.53;;
17175;SDS011;8703;48.996;9.594;2023-02-28T08:44:40;9.60;;;5.80;;
17175;SDS011;8703;48.996;9.594;2023-02-28T08:47:07;9.83;;;6.20;;
17175;SDS011;8703;48.996;9.594;2023-02-28T08:49:36;9.23;;;5.40;;
17175;SDS011;8703;48.996;9.594;2023-02-28T08:52:03;9.13;;;6.17;;
17175;SDS011;8703;48.996;9.594;2023-02-28T08:54:31;10.07;;;6.57;;
17175;SDS011;8703;48.996;9.594;2023-02-28T08:56:59;9.20;;;5.80;;
17175;SDS011;8703;48.996;9.594;2023-02-28T08:59:28;10.20;;;6.07;;
17175;SDS011;8703;48.996;9.594;2023-02-28T09:01:56;9.37;;;5.77;;
17175;SDS011;8703;48.996;9.594;2023-02-28T09:04:23;9.97;;;6.23;;
17175;SDS011;8703;48.996;9.594;2023-02-28T09:06:50;12.07;;;6.47;;
17175;SDS011;8703;48.996;9.594;2023-02-28T09:09:18;10.20;;;6.27;;
17175;SDS011;8703;48.996;9.594;2023-02-28T09:11:45;9.57;;;5.80;;
17175;SDS011;8703;48.996;9.594;2023-02-28T09:14:12;12.13;;;5.93;;
17175;SDS011;8703;48.996;9.594;2023-02-28T09:16:44;9.47;;;6.23;;
17175;SDS011;8703;48.996;9.594;2023-02-28T09:19:20;11.00;;;6.30;;
17175;SDS011;8703;48.996;9.594;2023-02-28T09:21:48;10.37;;;6.20;;
17175;SDS011;8703;48.996;9.594;2023-02-28T09:24:15;9.83;;;6.20;;
17175;SDS011;8703;48.996;9.594;2023-02-28T09:26:43;9.03;;;5.90;;
17175;SDS011;8703;48.996;9.594;2023-02-28T09:29:10;10.40;;;6.13;;
17175;SDS011;8703;48.996;9.594;2023-02-28T09:31:37;10.83;;;6.30;;
17175;SDS011;8703;48.996;9.594;2023-02-28T09:34:06;10.13;;;6.00;;
17175;SDS011;8703;48.996;9.594;2023-02-28T09:36:33;10.03;;;6.40;;
17175;SDS011;8703;48.996;9.594;2023-02-28T09:39:03;9.30;;;5.80;;
17175;SDS011;8703;48.996;9.594;2023-02-28T09:41:32;10.07;;;6.30;;
17175;SDS011;8703;48.996;9.594;2023-02-28T09:44:13;8.53;;;5.63;;
17175;SDS011;8703;48.996;9.594;2023-02-28T09:46:44;9.60;;;5.90;;
17175;SDS011;8703;48.996;9.594;2023-02-28T09:49:16;8.67;;;5.73;;
17175;SDS011;8703;48.996;9.594;2023-02-28T09:51:47;8.37;;;5.37;;
17175;SDS011;8703;48.996;9.594;2023-02-28T09:54:18;9.43;;;5.50;;
17175;SDS011;8703;48.996;9.594;2023-02-28T09:56:48;8.03;;;5.30;;
17175;SDS011;8703;48.996;9.594;2023-02-28T09:59:22;11.40;;;7.60;;
17175;SDS011;8703;48.996;9.594;2023-02-28T10:02:04;8.40;;;5.70;;
17175;SDS011;8703;48.996;9.594;2023-02-28T10:04:43;8.63;;;5.53;;
17175;SDS011;8703;48.996;9.594;2023-02-28T10:07:18;9.97;;;5.60;;
17175;SDS011;8703;48.996;9.594;2023-02-28T10:09:51;8.30;;;5.27;;
17175;SDS011;8703;48.996;9.594;2023-02-28T10:12:21;8.97;;;5.40;;
17175;SDS011;8703;48.996;9.594;2023-02-28T10:14:49;8.70;;;5.77;;
17175;SDS011;8703;48.996;9.594;2023-02-28T10:17:19;9.37;;;6.07;;
17175;SDS011;8703;48.996;9.594;2023-02-28T10:19:53;8.83;;;5.70;;
17175;SDS011;8703;48.996;9.594;2023-02-28T10:22:25;8.87;;;5.50;;
17175;SDS011;8703;48.996;9.594;2023-02-28T10:24:55;11.43;;;6.17;;
17175;SDS011;8703;48.996;9.594;2023-02-28T10:27:25;14.20;;;7.83;;
17175;SDS011;8703;48.996;9.594;2023-02-28T10:29:55;9.13;;;5.60;;
17175;SDS011;8703;48.996;9.594;2023-02-28T10:32:25;11.70;;;6.67;;
17175;SDS011;8703;48.996;9.594;2023-02-28T10:34:55;12.57;;;6.90;;
17175;SDS011;8703;48.996;9.594;2023-02-28T10:37:25;23.73;;;10.90;;
17175;SDS011;8703;48.996;9.594;2023-02-28T10:39:53;9.17;;;6.10;;
17175;SDS011;8703;48.996;9.594;2023-02-28T10:42:22;10.23;;;6.43;;
17175;SDS011;8703;48.996;9.594;2023-02-28T10:45:04;13.63;;;7.90;;
17175;SDS011;8703;48.996;9.594;2023-02-28T10:47:37;7.87;;;5.40;;
17175;SDS011;8703;48.996;9.594;2023-02-28T10:53:07;9.53;;;5.97;;
17175;SDS011;8703;48.996;9.594;2023-02-28T10:55:57;8.67;;;5.77;;
17175;SDS011;8703;48.996;9.594;2023-02-28T10:58:27;12.17;;;6.97;;
17175;SDS011;8703;48.996;9.594;2023-02-28T11:00:56;7.07;;;5.37;;
17175;SDS011;8703;48.996;9.594;2023-02-28T11:03:28;9.40;;;6.23;;
17175;SDS011;8703;48.996;9.594;2023-02-28T11:05:57;8.77;;;5.57;;
17175;SDS011;8703;48.996;9.594;2023-02-28T11:08:26;11.73;;;6.43;;
17175;SDS011;8703;48.996;9.594;2023-02-28T11:10:54;10.00;;;6.07;;
17175;SDS011;8703;48.996;9.594;2023-02-28T11:13:25;9.10;;;5.77;;
17175;SDS011;8703;48.996;9.594;2023-02-28T11:15:55;9.07;;;5.70;;
17175;SDS011;8703;48.996;9.594;2023-02-28T11:18:24;9.70;;;5.90;;
17175;SDS011;8703;48.996;9.594;2023-02-28T11:20:55;8.90;;;5.90;;
17175;SDS011;8703;48.996;9.594;2023-02-28T11:23:26;8.27;;;6.27;;
17175;SDS011;8703;48.996;9.594;2023-02-28T11:25:57;9.37;;;5.47;;
17175;SDS011;8703;48.996;9.594;2023-02-28T11:28:27;7.87;;;5.67;;
17175;SDS011;8703;48.996;9.594;2023-02-28T11:31:02;8.77;;;5.70;;
17175;SDS011;8703;48.996;9.594;2023-02-28T11:33:32;7.93;;;5.67;;
17175;SDS011;8703;48.996;9.594;2023-02-28T11:36:09;9.10;;;5.50;;
17175;SDS011;8703;48.996;9.594;2023-02-28T11:38:39;11.60;;;5.60;;
17175;SDS011;8703;48.996;9.594;2023-02-28T11:41:10;9.27;;;5.80;;
17175;SDS011;8703;48.996;9.594;2023-02-28T11:44:08;7.73;;;5.27;;
17175;SDS011;8703;48.996;9.594;2023-02-28T11:46:56;7.93;;;5.70;;
17175;SDS011;8703;48.996;9.594;2023-02-28T11:49:30;8.97;;;5.67;;
17175;SDS011;8703;48.996;9.594;2023-02-28T11:52:01;9.17;;;5.70;;
17175;SDS011;8703;48.996;9.594;2023-02-28T11:54:39;9.47;;;6.07;;
17175;SDS011;8703;48.996;9.594;2023-02-28T11:57:27;9.37;;;5.73;;
17175;SDS011;8703;48.996;9.594;2023-02-28T12:00:02;10.37;;;6.83;;
17175;SDS011;8703;48.996;9.594;2023-02-28T12:02:34;8.23;;;6.17;;
17175;SDS011;8703;48.996;9.594;2023-02-28T12:05:12;9.20;;;5.90;;
17175;SDS011;8703;48.996;9.594;2023-02-28T12:07:47;7.83;;;5.27;;
17175;SDS011;8703;48.996;9.594;2023-02-28T12:10:24;7.87;;;5.57;;
17175;SDS011;8703;48.996;9.594;2023-02-28T12:13:00;11.97;;;6.07;;
17175;SDS011;8703;48.996;9.594;2023-02-28T12:15:51;9.37;;;6.00;;
17175;SDS011;8703;48.996;9.594;2023-02-28T12:21:48;8.73;;;5.60;;
17175;SDS011;8703;48.996;9.594;2023-02-28T12:27:38;8.07;;;5.17;;
17175;SDS011;8703;48.996;9.594;2023-02-28T12:30:12;10.17;;;6.10;;
17175;SDS011;8703;48.996;9.594;2023-02-28T12:32:43;8.27;;;5.53;;
17175;SDS011;8703;48.996;9.594;2023-02-28T12:35:13;8.27;;;5.70;;
17175;SDS011;8703;48.996;9.594;2023-02-28T12:37:43;8.47;;;5.63;;
17175;SDS011;8703;48.996;9.594;2023-02-28T12:40:14;9.07;;;5.87;;
17175;SDS011;8703;48.996;9.594;2023-02-28T12:42:46;8.47;;;5.87;;
17175;SDS011;8703;48.996;9.594;2023-02-28T12:45:17;9.90;;;6.07;;
17175;SDS011;8703;48.996;9.594;2023-02-28T12:47:48;9.23;;;6.07;;
17175;SDS011;8703;48.996;9.594;2023-02-28T12:50:19;9.20;;;6.60;;
17175;SDS011;8703;48.996;9.594;2023-02-28T12:52:50;9.67;;;5.90;;
17175;SDS011;8703;48.996;9.594;2023-02-28T12:55:21;9.87;;;6.43;;
17175;SDS011;8703;48.996;9.594;2023-02-28T12:57:56;7.50;;;5.50;;
17175;SDS011;8703;48.996;9.594;2023-02-28T13:00:29;9.00;;;6.77;;
17175;SDS011;8703;48.996;9.594;2023-02-28T13:06:01;8.80;;;5.80;;
17175;SDS011;8703;48.996;9.594;2023-02-28T13:08:50;8.27;;;6.30;;
17175;SDS011;8703;48.996;9.594;2023-02-28T13:11:28;9.07;;;6.00;;
17175;SDS011;8703;48.996;9.594;2023-02-28T13:13:59;8.20;;;6.30;;
17175;SDS011;8703;48.996;9.594;2023-02-28T13:16:27;8.97;;;7.47;;
17175;SDS011;8703;48.996;9.594;2023-02-28T13:19:07;8.77;;;6.67;;
17175;SDS011;8703;48.996;9.594;2023-02-28T13:21:41;8.27;;;6.80;;
17175;SDS011;8703;48.996;9.594;2023-02-28T13:24:10;9.07;;;7.03;;
17175;SDS011;8703;48.996;9.594;2023-02-28T13:29:39;8.67;;;6.60;;
17175;SDS011;8703;48.996;9.594;2023-02-28T13:32:20;10.20;;;6.70;;
17175;SDS011;8703;48.996;9.594;2023-02-28T13:35:14;9.47;;;7.33;;
17175;SDS011;8703;48.996;9.594;2023-02-28T13:38:12;9.20;;;6.63;;
17175;SDS011;8703;48.996;9.594;2023-02-28T13:44:18;8.83;;;6.80;;
17175;SDS011;8703;48.996;9.594;2023-02-28T13:49:53;9.03;;;6.67;;
17175;SDS011;8703;48.996;9.594;2023-02-28T13:52:28;8.53;;;7.33;;
17175;SDS011;8703;48.996;9.594;2023-02-28T13:55:02;8.47;;;7.00;;
17175;SDS011;8703;48.996;9.594;2023-02-28T13:57:48;10.00;;;7.17;;
17175;SDS011;8703;48.996;9.594;2023-02-28T14:00:31;9.77;;;7.23;;
17175;SDS011;8703;48.996;9.594;2023-02-28T14:03:10;8.87;;;7.43;;
17175;SDS011;8703;48.996;9.594;2023-02-28T14:06:10;9.63;;;7.83;;
17175;SDS011;8703;48.996;9.594;2023-02-28T14:08:51;8.57;;;7.20;;
17175;SDS011;8703;48.996;9.594;2023-02-28T14:11:30;9.60;;;7.20;;
17175;SDS011;8703;48.996;9.594;2023-02-28T14:13:59;9.70;;;7.50;;
17175;SDS011;8703;48.996;9.594;2023-02-28T14:16:27;11.77;;;7.90;;
17175;SDS011;8703;48.996;9.594;2023-02-28T14:19:03;11.00;;;8.77;;
17175;SDS011;8703;48.996;9.594;2023-02-28T14:21:38;8.27;;;7.07;;
17175;SDS011;8703;48.996;9.594;2023-02-28T14:24:16;9.27;;;6.97;;
17175;SDS011;8703;48.996;9.594;2023-02-28T14:26:56;8.67;;;7.10;;
17175;SDS011;8703;48.996;9.594;2023-02-28T14:29:43;7.83;;;6.47;;
17175;SDS011;8703;48.996;9.594;2023-02-28T14:32:32;8.30;;;6.63;;
17175;SDS011;8703;48.996;9.594;2023-02-28T14:35:05;8.30;;;7.13;;
17175;SDS011;8703;48.996;9.594;2023-02-28T14:37:42;9.13;;;7.27;;
17175;SDS011;8703;48.996;9.594;2023-02-28T14:40:13;10.30;;;7.33;;
17175;SDS011;8703;48.996;9.594;2023-02-28T14:42:46;8.93;;;7.27;;
17175;SDS011;8703;48.996;9.594;2023-02-28T14:45:18;11.17;;;8.53;;
17175;SDS011;8703;48.996;9.594;2023-02-28T14:47:46;9.07;;;7.30;;
17175;SDS011;8703;48.996;9.594;2023-02-28T14:50:19;9.57;;;7.80;;
17175;SDS011;8703;48.996;9.594;2023-02-28T14:52:50;8.80;;;7.13;;
17175;SDS011;8703;48.996;9.594;2023-02-28T14:55:19;10.47;;;7.23;;
17175;SDS011;8703;48.996;9.594;2023-02-28T14:57:52;9.20;;;7.57;;
17175;SDS011;8703;48.996;9.594;2023-02-28T15:00:22;11.63;;;7.20;;
17175;SDS011;8703;48.996;9.594;2023-02-28T15:02:50;9.03;;;7.73;;
17175;SDS011;8703;48.996;9.594;2023-02-28T15:05:21;9.00;;;7.70;;
17175;SDS011;8703;48.996;9.594;2023-02-28T15:08:00;10.17;;;7.77;;
17175;SDS011;8703;48.996;9.594;2023-02-28T15:10:32;10.87;;;7.77;;
17175;SDS011;8703;48.996;9.594;2023-02-28T15:13:00;11.30;;;7.60;;
17175;SDS011;8703;48.996;9.594;2023-02-28T15:15:34;9.57;;;7.33;;
17175;SDS011;8703;48.996;9.594;2023-02-28T15:18:06;8.53;;;6.97;;
17175;SDS011;8703;48.996;9.594;2023-02-28T15:20:38;12.23;;;8.67;;
17175;SDS011;8703;48.996;9.594;2023-02-28T15:23:06;12.87;;;9.20;;
17175;SDS011;8703;48.996;9.594;2023-02-28T15:25:33;9.70;;;7.57;;
17175;SDS011;8703;48.996;9.594;2023-02-28T15:28:00;12.00;;;7.73;;
17175;SDS011;8703;48.996;9.594;2023-02-28T15:30:28;8.67;;;6.90;;
17175;SDS011;8703;48.996;9.594;2023-02-28T15:33:15;9.30;;;7.43;;
17175;SDS011;8703;48.996;9.594;2023-02-28T15:35:47;10.03;;;7.37;;
17175;SDS011;8703;48.996;9.594;2023-02-28T15:38:15;9.97;;;7.50;;
17175;SDS011;8703;48.996;9.594;2023-02-28T15:40:44;11.63;;;7.93;;
17175;SDS011;8703;48.996;9.594;2023-02-28T15:43:18;11.10;;;8.00;;
17175;SDS011;8703;48.996;9.594;2023-02-28T15:45:51;10.83;;;8.10;;
17175;SDS011;8703;48.996;9.594;2023-02-28T15:48:21;12.97;;;8.10;;
17175;SDS011;8703;48.996;9.594;2023-02-28T15:50:51;10.37;;;7.23;;